createdAt,value
2022-12-31T00:01:49.195Z,85.70
2022-12-31T00:04:16.086Z,86.52
2022-12-31T00:06:42.676Z,86.68
2022-12-31T00:09:10.671Z,86.08
2022-12-31T00:11:38.355Z,86.23
2022-12-31T00:14:05.343Z,86.13
2022-12-31T00:16:36.628Z,86.21
2022-12-31T00:19:03.749Z,86.09
2022-12-31T00:21:32.185Z,85.77
2022-12-31T00:23:58.888Z,86.20
2022-12-31T00:26:27.902Z,86.26
2022-12-31T00:28:56.176Z,86.07
2022-12-31T00:31:28.639Z,86.28
2022-12-31T00:33:56.303Z,85.82
2022-12-31T00:36:34.629Z,86.74
2022-12-31T00:39:03.222Z,86.16
2022-12-31T00:41:30.568Z,86.67
2022-12-31T00:43:57.893Z,87.03
2022-12-31T00:46:25.144Z,86.91
2022-12-31T00:48:52.055Z,86.52
2022-12-31T00:51:21.387Z,86.59
2022-12-31T00:53:48.175Z,86.96
2022-12-31T00:56:17.574Z,86.87
2022-12-31T00:58:44.189Z,87.20
2022-12-31T01:01:28.803Z,86.71
2022-12-31T01:03:59.646Z,87.43
2022-12-31T01:06:26.195Z,87.03
2022-12-31T01:08:55.131Z,88.04
2022-12-31T01:11:22.806Z,87.76
2022-12-31T01:14:12.102Z,87.80
2022-12-31T01:16:49.847Z,87.84
2022-12-31T01:19:25.762Z,87.47
2022-12-31T01:21:52.754Z,87.64
2022-12-31T01:24:20.365Z,87.48
2022-12-31T01:26:48.703Z,86.88
2022-12-31T01:29:16.940Z,87.12
2022-12-31T01:31:43.841Z,87.27
2022-12-31T01:34:10.592Z,87.19
2022-12-31T01:36:38.674Z,87.38
2022-12-31T01:39:07.046Z,87.01
2022-12-31T01:41:36.858Z,87.18
2022-12-31T01:44:12.560Z,87.39
2022-12-31T01:46:41.045Z,87.80
2022-12-31T01:49:34.072Z,87.40
2022-12-31T01:52:15.471Z,87.23
2022-12-31T01:54:47.188Z,87.37
2022-12-31T01:57:14.688Z,87.09
2022-12-31T01:59:42.206Z,87.06
2022-12-31T02:02:09.104Z,86.49
2022-12-31T02:04:35.788Z,86.60
2022-12-31T02:07:04.834Z,86.21
2022-12-31T02:09:32.318Z,86.30
2022-12-31T02:11:59.047Z,86.03
2022-12-31T02:14:48.262Z,86.69
2022-12-31T02:17:22.165Z,86.71
2022-12-31T02:20:10.450Z,86.98
2022-12-31T02:23:03.663Z,86.63
2022-12-31T02:25:52.105Z,87.08
2022-12-31T02:28:56.115Z,87.03
2022-12-31T02:31:37.084Z,86.86
2022-12-31T02:34:14.194Z,86.72
2022-12-31T02:36:44.305Z,87.24
2022-12-31T02:39:12.415Z,86.62
2022-12-31T02:41:50.999Z,86.66
2022-12-31T02:44:37.201Z,87.26
2022-12-31T02:47:09.821Z,87.14
2022-12-31T02:49:57.741Z,86.86
2022-12-31T02:52:52.179Z,87.06
2022-12-31T02:55:24.743Z,87.44
2022-12-31T02:58:21.380Z,86.83
2022-12-31T03:01:31.705Z,87.08
2022-12-31T03:04:17.333Z,86.81
2022-12-31T03:06:43.965Z,86.88
2022-12-31T03:09:13.371Z,86.83
2022-12-31T03:11:58.622Z,86.81
2022-12-31T03:14:25.284Z,86.46
2022-12-31T03:16:51.891Z,86.71
2022-12-31T03:19:37.307Z,87.66
2022-12-31T03:22:22.839Z,87.18
2022-12-31T03:25:08.481Z,87.21
2022-12-31T03:27:35.024Z,87.61
2022-12-31T03:30:01.580Z,86.96
2022-12-31T03:32:28.141Z,87.11
2022-12-31T03:34:55.833Z,87.07
2022-12-31T03:37:22.405Z,86.89
2022-12-31T03:39:49.007Z,87.02
2022-12-31T03:42:15.584Z,87.07
2022-12-31T03:44:42.175Z,87.08
2022-12-31T03:47:08.739Z,87.95
2022-12-31T03:49:35.321Z,87.46
2022-12-31T03:52:06.399Z,87.38
2022-12-31T03:54:32.971Z,87.73
2022-12-31T03:57:00.387Z,87.41
2022-12-31T03:59:27.144Z,87.34
2022-12-31T04:01:53.868Z,87.95
2022-12-31T04:04:20.726Z,87.40
2022-12-31T04:06:47.334Z,86.74
2022-12-31T04:09:13.993Z,86.70
2022-12-31T04:11:40.589Z,86.54
2022-12-31T04:14:07.281Z,86.70
2022-12-31T04:16:33.909Z,86.55
2022-12-31T04:19:00.594Z,87.01
2022-12-31T04:21:33.108Z,86.96
2022-12-31T04:24:02.559Z,87.41
2022-12-31T04:26:29.588Z,86.96
2022-12-31T04:28:56.239Z,87.34
2022-12-31T04:31:23.060Z,87.60
2022-12-31T04:33:49.656Z,87.87
2022-12-31T04:36:16.252Z,88.14
2022-12-31T04:38:42.846Z,87.83
2022-12-31T04:41:18.740Z,88.29
2022-12-31T04:43:51.644Z,87.79
2022-12-31T04:46:25.219Z,88.36
2022-12-31T04:48:51.808Z,87.41
2022-12-31T04:51:19.013Z,87.22
2022-12-31T04:53:45.767Z,87.72
2022-12-31T04:56:12.596Z,87.46
2022-12-31T04:58:39.627Z,87.38
2022-12-31T05:01:06.799Z,87.51
2022-12-31T05:03:34.848Z,87.00
2022-12-31T05:06:03.999Z,89.00
2022-12-31T05:08:31.230Z,88.24
2022-12-31T05:10:58.471Z,88.40
2022-12-31T05:13:29.494Z,88.77
2022-12-31T05:15:59.711Z,88.37
2022-12-31T05:18:26.549Z,88.75
2022-12-31T05:20:53.511Z,88.78
2022-12-31T05:23:20.146Z,89.75
2022-12-31T05:25:47.865Z,89.37
2022-12-31T05:28:15.674Z,89.55
2022-12-31T05:30:42.904Z,88.78
2022-12-31T05:33:09.511Z,89.25
2022-12-31T05:35:36.500Z,88.77
2022-12-31T05:38:03.132Z,88.52
2022-12-31T05:40:30.896Z,88.99
2022-12-31T05:42:58.598Z,89.31
2022-12-31T05:45:30.336Z,89.46
2022-12-31T05:47:57.747Z,88.55
2022-12-31T05:50:24.401Z,88.28
2022-12-31T05:52:55.448Z,88.76
2022-12-31T05:55:24.457Z,88.61
2022-12-31T05:57:51.020Z,88.82
2022-12-31T06:00:17.762Z,88.85
2022-12-31T06:02:44.851Z,88.54
2022-12-31T06:05:12.287Z,88.62
2022-12-31T06:07:38.937Z,88.71
2022-12-31T06:10:05.949Z,88.29
2022-12-31T06:12:32.567Z,88.56
2022-12-31T06:14:59.193Z,88.27
2022-12-31T06:17:25.768Z,88.32
2022-12-31T06:19:52.707Z,88.70
2022-12-31T06:22:19.260Z,88.24
2022-12-31T06:24:46.597Z,87.95
2022-12-31T06:27:13.177Z,87.99
2022-12-31T06:29:39.742Z,88.05
2022-12-31T06:32:06.918Z,88.13
2022-12-31T06:34:33.531Z,87.84
2022-12-31T06:37:00.749Z,88.02
2022-12-31T06:39:28.360Z,87.73
2022-12-31T06:41:55.256Z,87.67
2022-12-31T06:44:22.536Z,87.57
2022-12-31T06:46:50.022Z,87.49
2022-12-31T06:49:17.337Z,87.14
2022-12-31T06:51:46.001Z,87.41
2022-12-31T06:54:13.315Z,87.11
2022-12-31T06:56:40.763Z,87.16
2022-12-31T06:59:29.719Z,86.95
2022-12-31T07:02:37.280Z,87.32
2022-12-31T07:05:05.005Z,87.29
2022-12-31T07:07:37.540Z,86.87
2022-12-31T07:10:29.720Z,86.84
2022-12-31T07:13:30.795Z,86.51
2022-12-31T07:16:06.458Z,86.31
2022-12-31T07:18:35.870Z,86.47
2022-12-31T07:21:02.798Z,86.74
2022-12-31T07:23:29.693Z,86.79
2022-12-31T07:26:30.900Z,87.33
2022-12-31T07:29:20.498Z,86.75
2022-12-31T07:31:53.201Z,86.88
2022-12-31T07:34:22.964Z,87.16
2022-12-31T07:37:01.493Z,87.37
2022-12-31T07:39:54.584Z,87.26
2022-12-31T07:42:28.552Z,86.97
2022-12-31T07:45:04.066Z,86.41
2022-12-31T07:47:31.063Z,86.58
2022-12-31T07:49:58.404Z,86.45
2022-12-31T07:52:25.713Z,86.01
2022-12-31T07:54:52.309Z,86.20
2022-12-31T07:57:20.751Z,86.44
2022-12-31T07:59:50.045Z,86.04
2022-12-31T08:02:28.734Z,86.01
2022-12-31T08:05:04.182Z,85.84
2022-12-31T08:07:43.431Z,85.69
2022-12-31T08:10:29.676Z,85.71
2022-12-31T08:13:02.673Z,85.84
2022-12-31T08:15:30.730Z,85.93
2022-12-31T08:17:57.993Z,86.09
2022-12-31T08:20:25.867Z,85.49
2022-12-31T08:23:14.164Z,85.11
2022-12-31T08:25:53.000Z,85.56
2022-12-31T08:28:34.841Z,84.90
2022-12-31T08:31:08.861Z,84.31
2022-12-31T08:33:56.805Z,84.15
2022-12-31T08:36:50.191Z,83.44
2022-12-31T08:39:31.866Z,83.25
2022-12-31T08:42:03.307Z,84.19
2022-12-31T08:44:52.589Z,82.50
2022-12-31T08:47:46.768Z,83.62
2022-12-31T08:50:16.562Z,83.36
2022-12-31T08:52:43.430Z,82.97
2022-12-31T08:55:17.319Z,83.33
2022-12-31T08:57:52.808Z,82.93
2022-12-31T09:00:19.988Z,82.61
2022-12-31T09:03:16.928Z,83.14
2022-12-31T09:05:53.095Z,82.48
2022-12-31T09:08:50.978Z,81.89
2022-12-31T09:11:33.672Z,82.43
2022-12-31T09:14:23.570Z,82.54
2022-12-31T09:16:58.214Z,81.30
2022-12-31T09:19:24.859Z,81.33
2022-12-31T09:21:51.706Z,82.43
2022-12-31T09:24:18.559Z,82.19
2022-12-31T09:26:57.348Z,82.09
2022-12-31T09:29:46.109Z,81.16
2022-12-31T09:32:24.824Z,81.46
2022-12-31T09:35:03.952Z,80.61
2022-12-31T09:37:33.251Z,79.73
2022-12-31T09:40:34.098Z,78.83
2022-12-31T09:43:22.227Z,78.90
2022-12-31T09:46:14.535Z,78.61
2022-12-31T09:48:44.097Z,79.40
2022-12-31T09:51:39.782Z,78.84
2022-12-31T09:54:33.238Z,78.98
2022-12-31T09:57:21.160Z,77.62
2022-12-31T10:00:03.861Z,78.10
2022-12-31T10:03:16.997Z,78.18
2022-12-31T10:06:01.705Z,79.25
2022-12-31T10:08:57.485Z,78.31
2022-12-31T10:11:48.693Z,78.33
2022-12-31T10:14:34.078Z,78.43
2022-12-31T10:17:21.956Z,78.57
2022-12-31T10:20:15.283Z,78.54
2022-12-31T10:23:19.028Z,78.67
2022-12-31T10:25:51.196Z,78.75
2022-12-31T10:28:37.007Z,78.08
2022-12-31T10:31:13.557Z,77.93
2022-12-31T10:33:53.281Z,78.25
2022-12-31T10:36:52.812Z,77.47
2022-12-31T10:39:50.424Z,77.44
2022-12-31T10:42:19.732Z,77.26
2022-12-31T10:45:14.369Z,77.16
2022-12-31T10:48:02.582Z,77.34
2022-12-31T10:50:53.895Z,76.26
2022-12-31T10:53:58.903Z,75.67
2022-12-31T10:56:53.632Z,75.25
2022-12-31T10:59:38.104Z,74.71
2022-12-31T11:02:13.839Z,74.13
2022-12-31T11:04:59.159Z,74.54
2022-12-31T11:07:47.584Z,72.49
2022-12-31T11:10:43.405Z,73.42
2022-12-31T11:13:19.910Z,73.41
2022-12-31T11:15:52.368Z,73.59
2022-12-31T11:18:37.761Z,72.15
2022-12-31T11:21:28.175Z,72.61
2022-12-31T11:24:25.293Z,72.33
2022-12-31T11:27:03.678Z,71.22
2022-12-31T11:29:39.657Z,71.97
2022-12-31T11:32:28.274Z,72.45
2022-12-31T11:35:07.725Z,70.88
2022-12-31T11:37:45.815Z,71.32
2022-12-31T11:40:21.552Z,72.16
2022-12-31T11:43:21.035Z,71.03
2022-12-31T11:46:06.256Z,72.07
2022-12-31T11:49:14.732Z,71.24
2022-12-31T11:51:51.482Z,70.06
2022-12-31T11:54:34.431Z,70.98
2022-12-31T11:57:31.543Z,69.72
2022-12-31T12:00:00.715Z,70.18
2022-12-31T12:02:43.984Z,69.76
2022-12-31T12:05:14.985Z,69.79
2022-12-31T12:07:41.569Z,70.87
2022-12-31T12:10:35.613Z,68.52
2022-12-31T12:13:13.546Z,69.84
2022-12-31T12:15:44.684Z,69.70
2022-12-31T12:18:19.278Z,67.38
2022-12-31T12:20:46.959Z,69.87
2022-12-31T12:23:24.146Z,69.23
2022-12-31T12:25:51.538Z,70.07
2022-12-31T12:28:18.407Z,69.37
2022-12-31T12:31:05.635Z,67.66
2022-12-31T12:33:46.900Z,67.14
2022-12-31T12:36:15.569Z,69.76
2022-12-31T12:38:43.262Z,69.18
2022-12-31T12:41:20.862Z,67.12
2022-12-31T12:43:47.515Z,68.87
2022-12-31T12:46:20.292Z,66.87
2022-12-31T12:48:49.502Z,67.12
2022-12-31T12:51:25.145Z,66.62
2022-12-31T12:54:25.906Z,66.67
2022-12-31T12:57:05.525Z,66.61
2022-12-31T12:59:44.256Z,67.19
2022-12-31T13:02:16.758Z,65.94
2022-12-31T13:05:16.326Z,66.30
2022-12-31T13:08:00.963Z,66.51
2022-12-31T13:10:28.494Z,68.76
2022-12-31T13:13:25.429Z,66.41
2022-12-31T13:16:40.599Z,66.68
2022-12-31T13:19:32.809Z,67.33
2022-12-31T13:22:31.760Z,66.40
2022-12-31T13:25:34.695Z,67.81
2022-12-31T13:28:06.264Z,66.45
2022-12-31T13:30:38.860Z,66.96
2022-12-31T13:33:11.449Z,68.48
2022-12-31T13:35:59.588Z,67.35
2022-12-31T13:38:28.680Z,67.49
2022-12-31T13:41:23.125Z,66.80
2022-12-31T13:44:04.846Z,66.46
2022-12-31T13:46:50.084Z,67.21
2022-12-31T13:49:25.632Z,68.08
2022-12-31T13:52:05.161Z,67.29
2022-12-31T13:54:34.739Z,69.02
2022-12-31T13:57:36.680Z,66.99
2022-12-31T14:00:07.164Z,68.28
2022-12-31T14:03:04.526Z,67.52
2022-12-31T14:05:35.178Z,68.55
2022-12-31T14:08:03.120Z,68.10
2022-12-31T14:10:57.460Z,66.98
2022-12-31T14:13:55.944Z,67.64
2022-12-31T14:16:57.995Z,68.93
2022-12-31T14:19:43.276Z,68.05
2022-12-31T14:22:25.538Z,69.06
2022-12-31T14:24:52.515Z,69.36
2022-12-31T14:27:31.219Z,68.15
2022-12-31T14:30:15.681Z,68.80
2022-12-31T14:33:10.733Z,69.18
2022-12-31T14:35:46.666Z,69.56
2022-12-31T14:38:32.079Z,69.43
2022-12-31T14:41:33.130Z,69.60
2022-12-31T14:44:29.764Z,70.26
2022-12-31T14:47:27.524Z,70.86
2022-12-31T14:50:11.812Z,70.68
2022-12-31T14:52:47.373Z,71.19
2022-12-31T14:55:15.032Z,70.62
2022-12-31T14:58:25.782Z,71.30
2022-12-31T15:00:35.716Z,71.26
2022-12-31T15:03:06.557Z,71.79
2022-12-31T15:05:36.404Z,71.81
2022-12-31T15:08:34.073Z,72.40
2022-12-31T15:11:34.025Z,72.86
2022-12-31T15:14:15.503Z,72.77
2022-12-31T15:17:06.849Z,73.16
2022-12-31T15:19:33.286Z,73.77
2022-12-31T15:22:23.132Z,73.41
2022-12-31T15:24:50.195Z,73.12
2022-12-31T15:27:37.126Z,73.37
2022-12-31T15:30:07.881Z,73.56
2022-12-31T15:32:42.037Z,74.24
2022-12-31T15:35:20.934Z,73.87
2022-12-31T15:38:15.239Z,74.39
2022-12-31T15:40:50.653Z,74.95
2022-12-31T15:43:29.390Z,74.78
2022-12-31T15:45:57.636Z,75.21
2022-12-31T15:48:37.534Z,75.84
2022-12-31T15:51:05.551Z,75.77
2022-12-31T15:53:43.020Z,75.83
2022-12-31T15:56:18.962Z,76.30
2022-12-31T15:58:47.400Z,75.45
2022-12-31T16:01:24.668Z,75.80
2022-12-31T16:04:02.356Z,76.74
2022-12-31T16:06:31.283Z,76.47
2022-12-31T16:08:58.491Z,75.52
2022-12-31T16:11:25.776Z,75.58
2022-12-31T16:13:55.164Z,76.25
2022-12-31T16:16:21.908Z,76.53
2022-12-31T16:18:53.125Z,75.55
2022-12-31T16:21:37.029Z,76.17
2022-12-31T16:24:07.509Z,76.74
2022-12-31T16:26:46.355Z,77.53
2022-12-31T16:29:19.017Z,77.11
2022-12-31T16:31:47.493Z,77.43
2022-12-31T16:34:16.992Z,78.49
2022-12-31T16:36:55.197Z,79.25
2022-12-31T16:39:21.724Z,78.78
2022-12-31T16:41:48.478Z,78.25
2022-12-31T16:44:28.163Z,79.02
2022-12-31T16:47:00.609Z,79.05
2022-12-31T16:49:30.410Z,78.27
2022-12-31T16:52:04.558Z,78.64
2022-12-31T16:54:47.154Z,79.80
2022-12-31T16:57:24.481Z,79.99
2022-12-31T16:59:55.834Z,79.07
2022-12-31T17:02:29.949Z,79.06
2022-12-31T17:04:56.736Z,78.34
2022-12-31T17:07:29.469Z,79.81
2022-12-31T17:10:22.365Z,79.59
2022-12-31T17:13:30.582Z,79.75
2022-12-31T17:15:47.743Z,78.82
2022-12-31T17:18:20.883Z,78.89
2022-12-31T17:20:50.266Z,78.95
2022-12-31T17:23:25.192Z,80.20
2022-12-31T17:26:08.829Z,80.05
2022-12-31T17:28:43.253Z,79.90
2022-12-31T17:31:43.160Z,79.31
2022-12-31T17:34:12.436Z,79.17
2022-12-31T17:36:41.674Z,79.70
2022-12-31T17:39:19.545Z,78.92
2022-12-31T17:41:47.869Z,78.70
2022-12-31T17:44:21.476Z,78.95
2022-12-31T17:46:49.938Z,79.18
2022-12-31T17:49:17.454Z,78.57
2022-12-31T17:51:47.774Z,78.63
2022-12-31T17:54:18.866Z,79.42
2022-12-31T17:56:45.865Z,79.42
2022-12-31T17:59:17.797Z,79.54
2022-12-31T18:01:44.559Z,79.35
2022-12-31T18:04:13.459Z,79.88
2022-12-31T18:06:40.057Z,79.51
2022-12-31T18:09:07.054Z,79.47
2022-12-31T18:11:36.368Z,79.80
2022-12-31T18:14:03.114Z,79.81
2022-12-31T18:16:30.142Z,79.85
2022-12-31T18:18:58.796Z,80.68
2022-12-31T18:21:34.445Z,80.89
2022-12-31T18:26:29.423Z,80.46
2022-12-31T18:29:01.645Z,80.35
2022-12-31T18:31:30.899Z,80.09
2022-12-31T18:33:58.795Z,79.91
2022-12-31T18:36:26.437Z,79.97
2022-12-31T18:38:53.075Z,80.46
2022-12-31T18:41:31.141Z,81.56
2022-12-31T18:43:57.688Z,80.95
2022-12-31T18:46:25.228Z,81.34
2022-12-31T18:48:51.860Z,81.37
2022-12-31T18:51:31.439Z,81.41
2022-12-31T18:53:59.404Z,81.52
2022-12-31T18:56:26.627Z,81.14
2022-12-31T18:58:53.192Z,81.07
2022-12-31T19:01:24.387Z,81.11
2022-12-31T19:03:51.028Z,81.60
2022-12-31T19:06:17.675Z,80.89
2022-12-31T19:08:44.229Z,81.65
2022-12-31T19:11:14.566Z,80.85
2022-12-31T19:13:41.294Z,81.03
2022-12-31T19:16:09.326Z,81.15
2022-12-31T19:18:35.959Z,80.98
2022-12-31T19:21:03.379Z,81.25
2022-12-31T19:23:29.976Z,81.78
2022-12-31T19:25:56.573Z,81.26
2022-12-31T19:28:25.551Z,81.34
2022-12-31T19:30:52.878Z,82.03
2022-12-31T19:33:20.081Z,82.57
2022-12-31T19:35:46.811Z,82.03
2022-12-31T19:38:24.856Z,82.40
2022-12-31T19:40:53.251Z,81.79
2022-12-31T19:43:22.949Z,81.37
2022-12-31T19:45:50.982Z,81.45
2022-12-31T19:48:20.351Z,81.34
2022-12-31T19:50:49.558Z,82.48
2022-12-31T19:53:25.603Z,81.73
2022-12-31T19:55:53.559Z,81.60
2022-12-31T19:58:24.620Z,81.25
2022-12-31T20:00:58.213Z,81.85
2022-12-31T20:03:27.928Z,82.13
2022-12-31T20:06:15.165Z,82.31
2022-12-31T20:08:43.346Z,82.46
2022-12-31T20:11:15.365Z,82.27
2022-12-31T20:13:42.480Z,82.69
2022-12-31T20:16:13.931Z,82.29
2022-12-31T20:18:41.834Z,82.31
2022-12-31T20:21:10.532Z,82.89
2022-12-31T20:23:37.470Z,82.40
2022-12-31T20:26:04.129Z,82.68
2022-12-31T20:28:30.810Z,82.43
2022-12-31T20:30:57.469Z,82.52
2022-12-31T20:33:24.216Z,82.29
2022-12-31T20:35:51.192Z,82.02
2022-12-31T20:38:17.754Z,82.11
2022-12-31T20:40:46.928Z,82.38
2022-12-31T20:43:14.138Z,82.18
2022-12-31T20:45:41.616Z,82.49
2022-12-31T20:48:08.311Z,81.74
2022-12-31T20:50:35.024Z,81.95
2022-12-31T20:53:02.034Z,82.13
2022-12-31T20:55:30.699Z,82.01
2022-12-31T20:57:57.323Z,82.34
2022-12-31T21:00:23.909Z,81.51
2022-12-31T21:03:00.280Z,81.97
2022-12-31T21:05:33.543Z,81.60
2022-12-31T21:08:00.255Z,82.00
2022-12-31T21:10:26.871Z,81.68
2022-12-31T21:12:53.497Z,82.31
2022-12-31T21:15:21.461Z,81.84
2022-12-31T21:17:48.093Z,81.84
2022-12-31T21:20:14.701Z,81.41
2022-12-31T21:22:41.333Z,81.71
2022-12-31T21:25:08.172Z,81.09
2022-12-31T21:27:35.788Z,81.41
2022-12-31T21:30:19.781Z,80.77
2022-12-31T21:32:47.053Z,81.96
2022-12-31T21:38:01.842Z,81.40
2022-12-31T21:40:29.372Z,81.61
2022-12-31T21:42:56.102Z,81.54
2022-12-31T21:45:22.714Z,81.34
2022-12-31T21:48:10.676Z,81.09
2022-12-31T21:50:37.332Z,81.29
2022-12-31T21:53:03.939Z,80.62
2022-12-31T21:55:49.212Z,80.99
2022-12-31T21:58:26.536Z,81.01
2022-12-31T22:01:27.536Z,80.55
2022-12-31T22:03:54.263Z,80.64
2022-12-31T22:06:24.626Z,80.43
2022-12-31T22:08:53.755Z,80.37
2022-12-31T22:11:23.028Z,80.47
2022-12-31T22:13:50.019Z,80.43
2022-12-31T22:16:18.632Z,80.68
2022-12-31T22:18:45.504Z,80.14
2022-12-31T22:21:22.933Z,80.13
2022-12-31T22:23:52.475Z,79.65
2022-12-31T22:28:48.305Z,80.11
2022-12-31T22:31:19.788Z,80.30
2022-12-31T22:33:46.750Z,79.98
2022-12-31T22:36:16.144Z,79.84
2022-12-31T22:38:43.155Z,79.79
2022-12-31T22:41:14.959Z,79.71
2022-12-31T22:43:44.437Z,79.60
2022-12-31T22:46:19.895Z,79.71
2022-12-31T22:48:47.383Z,79.80
2022-12-31T22:51:15.306Z,79.70
2022-12-31T22:53:43.463Z,79.26
2022-12-31T22:56:12.394Z,79.54
2022-12-31T22:58:39.180Z,79.36
2022-12-31T23:01:08.126Z,79.32
2022-12-31T23:03:34.927Z,79.49
2022-12-31T23:06:02.374Z,79.46
2022-12-31T23:08:28.966Z,79.53
2022-12-31T23:11:01.121Z,79.47
2022-12-31T23:13:51.007Z,79.26
2022-12-31T23:16:38.169Z,79.25
2022-12-31T23:19:24.780Z,79.50
2022-12-31T23:22:11.195Z,79.41
2022-12-31T23:24:38.549Z,79.54
2022-12-31T23:27:05.745Z,79.50
2022-12-31T23:29:32.620Z,79.32
2022-12-31T23:31:59.354Z,79.67
2022-12-31T23:34:25.954Z,79.46
2022-12-31T23:36:52.528Z,79.50
2022-12-31T23:39:19.307Z,79.85
2022-12-31T23:41:45.862Z,79.43
2022-12-31T23:44:12.452Z,80.03
2022-12-31T23:46:40.005Z,79.33
2022-12-31T23:49:06.744Z,79.28
2022-12-31T23:51:33.580Z,79.59
2022-12-31T23:54:00.873Z,79.64
2022-12-31T23:56:29.803Z,79.26
2022-12-31T23:58:57.885Z,79.26
